createdAt,value
2022-09-16T00:01:13.938Z,15.27
2022-09-16T00:03:42.418Z,13.77
2022-09-16T00:06:19.657Z,11.93
2022-09-16T00:08:48.267Z,11.93
2022-09-16T00:11:17.307Z,13.73
2022-09-16T00:13:46.461Z,13.80
2022-09-16T00:16:18.475Z,12.80
2022-09-16T00:18:46.886Z,11.88
2022-09-16T00:21:15.151Z,13.05
2022-09-16T00:23:44.773Z,13.88
2022-09-16T00:26:13.096Z,13.77
2022-09-16T00:28:41.416Z,12.95
2022-09-16T00:31:10.102Z,11.43
2022-09-16T00:33:38.556Z,10.50
2022-09-16T00:36:09.078Z,11.48
2022-09-16T00:41:07.720Z,11.88
2022-09-16T00:43:50.008Z,12.90
2022-09-16T00:46:19.963Z,14.52
2022-09-16T00:48:48.368Z,10.20
2022-09-16T00:51:17.882Z,14.73
2022-09-16T00:53:49.596Z,9.85
2022-09-16T00:56:23.030Z,13.63
2022-09-16T00:58:53.527Z,10.23
2022-09-16T01:03:55.071Z,10.80
2022-09-16T01:06:25.622Z,11.52
2022-09-16T01:11:23.505Z,13.27
2022-09-16T01:13:53.017Z,10.77
2022-09-16T01:16:25.095Z,10.57
2022-09-16T01:18:59.928Z,10.23
2022-09-16T01:21:38.835Z,14.35
2022-09-16T01:24:49.114Z,11.52
2022-09-16T01:27:44.615Z,10.50
2022-09-16T01:30:40.840Z,11.27
2022-09-16T01:33:17.781Z,9.75
2022-09-16T01:35:56.217Z,9.45
2022-09-16T01:38:36.544Z,11.75
2022-09-16T01:41:09.107Z,9.60
2022-09-16T01:43:44.660Z,9.05
2022-09-16T01:46:20.909Z,10.80
2022-09-16T01:48:55.667Z,10.50
2022-09-16T01:51:27.903Z,9.77
2022-09-16T01:54:04.034Z,9.38
2022-09-16T01:56:37.950Z,10.35
2022-09-16T01:59:09.431Z,8.55
2022-09-16T02:01:41.087Z,9.23
2022-09-16T02:04:14.480Z,12.68
2022-09-16T02:06:45.778Z,8.98
2022-09-16T02:09:18.617Z,10.02
2022-09-16T02:11:48.794Z,8.45
2022-09-16T02:14:19.801Z,8.75
2022-09-16T02:16:51.174Z,11.77
2022-09-16T02:19:24.325Z,9.30
2022-09-16T02:21:53.673Z,9.20
2022-09-16T02:24:23.584Z,10.77
2022-09-16T02:26:55.462Z,11.40
2022-09-16T02:29:27.210Z,7.68
2022-09-16T02:31:59.854Z,8.27
2022-09-16T02:34:33.407Z,8.25
2022-09-16T02:37:05.713Z,8.75
2022-09-16T02:39:37.774Z,10.15
2022-09-16T02:42:06.771Z,8.93
2022-09-16T02:44:35.945Z,10.65
2022-09-16T02:47:10.793Z,9.10
2022-09-16T02:49:44.422Z,10.55
2022-09-16T02:52:17.909Z,10.98
2022-09-16T02:54:51.502Z,8.88
2022-09-16T02:57:20.473Z,8.90
2022-09-16T02:59:48.849Z,9.05
2022-09-16T03:02:17.215Z,8.25
2022-09-16T03:04:47.185Z,10.30
2022-09-16T03:07:16.886Z,9.68
2022-09-16T03:09:47.141Z,10.73
2022-09-16T03:12:25.184Z,9.32
2022-09-16T03:15:31.644Z,8.95
2022-09-16T03:18:18.815Z,7.53
2022-09-16T03:20:53.940Z,11.73
2022-09-16T03:23:28.788Z,8.52
2022-09-16T03:26:00.409Z,9.38
2022-09-16T03:28:34.717Z,10.18
2022-09-16T03:31:07.865Z,10.60
2022-09-16T03:33:40.857Z,10.77
2022-09-16T03:36:15.397Z,12.07
2022-09-16T03:38:44.473Z,9.00
2022-09-16T03:41:13.907Z,8.52
2022-09-16T03:43:42.236Z,9.60
2022-09-16T03:46:12.271Z,12.43
2022-09-16T03:48:40.734Z,9.73
2022-09-16T03:51:10.449Z,11.68
2022-09-16T03:53:38.848Z,9.57
2022-09-16T03:56:07.728Z,11.70
2022-09-16T03:58:36.163Z,12.40
2022-09-16T04:01:05.020Z,11.50
2022-09-16T04:03:33.727Z,13.52
2022-09-16T04:06:02.113Z,13.13
2022-09-16T04:08:31.813Z,12.60
2022-09-16T04:11:02.204Z,13.13
2022-09-16T04:13:31.762Z,15.10
2022-09-16T04:16:00.133Z,12.80
2022-09-16T04:18:28.758Z,13.65
2022-09-16T04:20:58.768Z,14.68
2022-09-16T04:23:27.142Z,13.65
2022-09-16T04:25:57.357Z,12.55
2022-09-16T04:28:26.110Z,14.75
2022-09-16T04:30:54.704Z,18.67
2022-09-16T04:33:23.273Z,14.68
2022-09-16T04:35:51.594Z,14.63
2022-09-16T04:38:20.032Z,15.27
2022-09-16T04:40:48.388Z,15.95
2022-09-16T04:43:18.157Z,14.52
2022-09-16T04:45:46.558Z,12.55
2022-09-16T04:48:14.965Z,16.90
2022-09-16T04:50:43.423Z,12.95
2022-09-16T04:53:11.811Z,14.98
2022-09-16T04:55:40.166Z,15.85
2022-09-16T04:58:08.570Z,15.60
2022-09-16T05:00:38.342Z,13.85
2022-09-16T05:03:06.925Z,14.73
2022-09-16T05:05:35.306Z,16.98
2022-09-16T05:08:03.864Z,17.70
2022-09-16T05:10:39.133Z,15.35
2022-09-16T05:13:09.039Z,14.63
2022-09-16T05:15:38.872Z,17.98
2022-09-16T05:18:07.300Z,14.88
2022-09-16T05:20:36.478Z,15.75
2022-09-16T05:23:05.278Z,15.90
2022-09-16T05:25:34.780Z,14.70
2022-09-16T05:28:03.563Z,14.07
2022-09-16T05:30:31.914Z,14.48
2022-09-16T05:33:01.669Z,15.50
2022-09-16T05:35:30.062Z,13.67
2022-09-16T05:37:58.515Z,15.65
2022-09-16T05:40:27.769Z,14.57
2022-09-16T05:42:56.623Z,14.48
2022-09-16T05:45:28.771Z,14.85
2022-09-16T05:48:01.306Z,16.08
2022-09-16T05:50:29.650Z,14.52
2022-09-16T05:52:57.987Z,17.67
2022-09-16T05:55:26.877Z,15.23
2022-09-16T05:57:55.155Z,15.20
2022-09-16T06:00:23.511Z,15.50
2022-09-16T06:02:51.901Z,14.57
2022-09-16T06:05:22.023Z,15.90
2022-09-16T06:07:50.339Z,17.83
2022-09-16T06:10:19.116Z,14.43
2022-09-16T06:15:33.165Z,14.25
2022-09-16T06:18:06.110Z,16.67
2022-09-16T06:20:37.776Z,14.13
2022-09-16T06:23:06.048Z,12.38
2022-09-16T06:25:34.423Z,15.02
2022-09-16T06:28:03.346Z,13.88
2022-09-16T06:30:32.214Z,13.38
2022-09-16T06:33:00.562Z,16.25
2022-09-16T06:35:29.015Z,14.85
2022-09-16T06:37:59.520Z,13.80
2022-09-16T06:43:00.015Z,13.88
2022-09-16T06:45:29.391Z,12.20
2022-09-16T06:48:00.963Z,16.50
2022-09-16T06:50:29.480Z,15.15
2022-09-16T06:52:59.346Z,12.45
2022-09-16T06:55:27.653Z,14.30
2022-09-16T06:57:57.954Z,14.05
2022-09-16T07:00:26.574Z,12.40
2022-09-16T07:02:55.104Z,14.82
2022-09-16T07:05:23.749Z,14.70
2022-09-16T07:07:53.103Z,11.82
2022-09-16T07:10:24.205Z,14.02
2022-09-16T07:12:52.915Z,16.00
2022-09-16T07:15:21.413Z,15.73
2022-09-16T07:17:55.055Z,15.65
2022-09-16T07:20:23.527Z,15.82
2022-09-16T07:22:53.995Z,15.15
2022-09-16T07:27:51.745Z,15.68
2022-09-16T07:30:20.056Z,11.07
2022-09-16T07:32:48.504Z,16.35
2022-09-16T07:35:16.887Z,13.70
2022-09-16T07:37:45.126Z,12.63
2022-09-16T07:40:14.038Z,14.25
2022-09-16T07:42:43.703Z,15.05
2022-09-16T07:45:12.347Z,12.67
2022-09-16T07:47:40.694Z,15.65
2022-09-16T07:50:09.969Z,14.20
2022-09-16T07:52:38.337Z,13.75
2022-09-16T07:55:07.471Z,13.98
2022-09-16T07:57:35.963Z,14.23
2022-09-16T08:00:07.035Z,12.02
2022-09-16T08:02:35.390Z,16.40
2022-09-16T08:05:03.685Z,12.27
2022-09-16T08:07:31.984Z,12.93
2022-09-16T08:10:00.375Z,12.68
2022-09-16T08:12:32.332Z,11.93
2022-09-16T08:15:00.716Z,17.80
2022-09-16T08:17:33.365Z,11.18
2022-09-16T08:20:06.094Z,12.85
2022-09-16T08:22:35.230Z,13.48
2022-09-16T08:25:03.520Z,14.75
2022-09-16T08:27:31.927Z,13.77
2022-09-16T08:30:00.204Z,13.13
2022-09-16T08:32:30.964Z,14.07
2022-09-16T08:34:59.405Z,14.05
2022-09-16T08:37:27.746Z,12.65
2022-09-16T08:39:56.007Z,11.05
2022-09-16T08:42:31.948Z,13.45
2022-09-16T08:45:09.969Z,12.70
2022-09-16T08:47:49.650Z,14.43
2022-09-16T08:50:23.412Z,11.48
2022-09-16T08:52:53.059Z,12.85
2022-09-16T08:55:31.635Z,13.63
2022-09-16T08:58:03.118Z,15.98
2022-09-16T09:00:32.747Z,15.55
2022-09-16T09:03:08.653Z,13.98
2022-09-16T09:05:43.651Z,14.65
2022-09-16T09:08:22.508Z,13.50
2022-09-16T09:10:53.631Z,12.85
2022-09-16T09:13:36.978Z,16.30
2022-09-16T09:16:10.191Z,14.40
2022-09-16T09:18:46.428Z,13.93
2022-09-16T09:21:21.901Z,12.15
2022-09-16T09:24:22.422Z,12.38
2022-09-16T09:26:52.439Z,16.15
2022-09-16T09:29:43.029Z,13.23
2022-09-16T09:35:05.351Z,17.83
2022-09-16T09:37:48.679Z,15.13
2022-09-16T09:40:20.701Z,16.23
2022-09-16T09:42:52.387Z,16.55
2022-09-16T09:45:25.667Z,19.15
2022-09-16T09:47:58.382Z,13.13
2022-09-16T09:50:30.990Z,15.95
2022-09-16T09:53:07.042Z,15.25
2022-09-16T09:55:36.743Z,14.73
2022-09-16T09:58:17.279Z,14.85
2022-09-16T10:03:16.502Z,14.90
2022-09-16T10:05:47.383Z,15.55
2022-09-16T10:08:22.527Z,15.52
2022-09-16T10:10:52.661Z,15.90
2022-09-16T10:13:22.046Z,13.40
2022-09-16T10:15:54.802Z,15.45
2022-09-16T10:18:29.668Z,14.32
2022-09-16T10:21:06.042Z,8.30
2022-09-16T10:23:35.500Z,4.85
2022-09-16T10:26:15.458Z,5.00
2022-09-16T10:28:55.342Z,8.07
2022-09-16T10:31:24.423Z,8.60
2022-09-16T10:33:53.039Z,7.35
2022-09-16T10:36:26.304Z,9.88
2022-09-16T10:38:59.600Z,8.30
2022-09-16T10:41:33.969Z,7.43
2022-09-16T10:44:04.413Z,11.23
2022-09-16T10:46:33.162Z,10.55
2022-09-16T10:49:03.377Z,13.73
2022-09-16T10:54:26.021Z,9.27
2022-09-16T10:56:54.420Z,14.07
2022-09-16T10:59:22.720Z,10.45
2022-09-16T11:01:57.817Z,10.13
2022-09-16T11:04:55.738Z,10.43
2022-09-16T11:07:36.252Z,8.13
2022-09-16T11:12:51.237Z,5.30
2022-09-16T11:15:28.756Z,6.78
2022-09-16T11:18:06.562Z,6.90
2022-09-16T11:20:51.409Z,7.72
2022-09-16T11:23:31.533Z,6.03
2022-09-16T11:26:04.290Z,7.25
2022-09-16T11:28:46.417Z,7.97
2022-09-16T11:31:22.635Z,9.32
2022-09-16T11:33:55.214Z,6.63
2022-09-16T11:36:39.386Z,7.65
2022-09-16T11:39:23.497Z,6.72
2022-09-16T11:41:58.910Z,7.43
2022-09-16T11:44:43.313Z,6.15
2022-09-16T11:47:21.820Z,7.95
2022-09-16T11:50:16.089Z,7.03
2022-09-16T11:53:05.379Z,8.07
2022-09-16T11:55:43.446Z,6.38
2022-09-16T11:58:21.913Z,10.25
2022-09-16T12:00:51.422Z,10.85
2022-09-16T12:03:26.960Z,9.85
2022-09-16T12:06:03.643Z,6.57
2022-09-16T12:08:36.108Z,8.35
2022-09-16T12:11:13.210Z,7.93
2022-09-16T12:13:44.843Z,10.60
2022-09-16T12:16:21.459Z,6.80
2022-09-16T12:18:52.853Z,8.88
2022-09-16T12:21:25.480Z,8.75
2022-09-16T12:23:57.659Z,7.30
2022-09-16T12:26:30.592Z,8.27
2022-09-16T12:29:05.427Z,10.35
2022-09-16T12:31:36.283Z,10.10
2022-09-16T12:34:06.840Z,11.63
2022-09-16T12:39:03.717Z,9.25
2022-09-16T12:41:57.077Z,7.50
2022-09-16T12:44:55.510Z,6.20
2022-09-16T12:47:56.495Z,7.90
2022-09-16T12:50:50.955Z,10.07
2022-09-16T12:54:06.926Z,10.55
2022-09-16T12:56:46.912Z,8.48
2022-09-16T12:59:41.956Z,10.43
2022-09-16T13:02:14.133Z,9.75
2022-09-16T13:04:45.649Z,7.22
2022-09-16T13:07:22.679Z,5.00
2022-09-16T13:09:51.970Z,7.78
2022-09-16T13:12:39.122Z,6.85
2022-09-16T13:15:21.400Z,6.60
2022-09-16T13:17:52.865Z,6.60
2022-09-16T13:20:25.253Z,8.68
2022-09-16T13:23:09.891Z,5.82
2022-09-16T13:25:48.172Z,6.60
2022-09-16T13:28:28.309Z,9.10
2022-09-16T13:30:56.708Z,9.52
2022-09-16T13:33:29.841Z,11.75
2022-09-16T13:36:30.775Z,6.68
2022-09-16T13:39:00.808Z,4.80
2022-09-16T13:41:34.563Z,4.90
2022-09-16T13:44:05.759Z,5.53
2022-09-16T13:46:36.807Z,4.97
2022-09-16T13:49:14.007Z,8.68
2022-09-16T13:51:45.392Z,4.70
2022-09-16T13:54:22.992Z,4.68
2022-09-16T13:57:22.996Z,3.80
2022-09-16T14:00:15.237Z,3.78
2022-09-16T14:02:55.374Z,7.00
2022-09-16T14:05:47.216Z,7.53
2022-09-16T14:08:20.242Z,6.18
2022-09-16T14:10:56.146Z,8.40
2022-09-16T14:13:25.816Z,6.50
2022-09-16T14:15:58.231Z,7.13
2022-09-16T14:18:28.108Z,6.47
2022-09-16T14:21:01.595Z,5.07
2022-09-16T14:23:31.337Z,6.80
2022-09-16T14:25:59.789Z,8.20
2022-09-16T14:28:29.150Z,7.38
2022-09-16T14:31:00.199Z,7.15
2022-09-16T14:33:31.281Z,6.28
2022-09-16T14:36:00.499Z,7.97
2022-09-16T14:38:45.479Z,7.20
2022-09-16T14:41:21.107Z,8.07
2022-09-16T14:43:49.521Z,6.03
2022-09-16T14:46:19.223Z,6.70
2022-09-16T14:48:47.660Z,7.38
2022-09-16T14:51:21.971Z,6.55
2022-09-16T14:54:13.616Z,6.90
2022-09-16T14:56:42.127Z,6.82
2022-09-16T14:59:12.771Z,6.15
2022-09-16T15:01:42.675Z,6.50
2022-09-16T15:04:13.452Z,8.10
2022-09-16T15:06:45.964Z,9.07
2022-09-16T15:09:18.239Z,6.22
2022-09-16T15:11:49.248Z,7.97
2022-09-16T15:14:17.982Z,6.55
2022-09-16T15:16:49.606Z,8.48
2022-09-16T15:19:21.419Z,7.88
2022-09-16T15:21:50.069Z,7.80
2022-09-16T15:24:20.542Z,6.55
2022-09-16T15:26:49.393Z,10.30
2022-09-16T15:29:31.886Z,6.72
2022-09-16T15:32:19.603Z,6.43
2022-09-16T15:34:48.955Z,7.65
2022-09-16T15:37:33.084Z,6.75
2022-09-16T15:40:12.650Z,8.65
2022-09-16T15:42:42.366Z,8.80
2022-09-16T15:45:19.796Z,7.97
2022-09-16T15:47:57.362Z,6.97
2022-09-16T15:50:27.036Z,10.70
2022-09-16T15:52:58.233Z,14.20
2022-09-16T15:55:31.415Z,12.50
2022-09-16T15:58:04.996Z,9.73
2022-09-16T16:01:05.488Z,7.25
2022-09-16T16:03:39.193Z,7.43
2022-09-16T16:06:07.889Z,8.00
2022-09-16T16:08:46.031Z,8.75
2022-09-16T16:11:15.706Z,7.80
2022-09-16T16:13:44.393Z,11.23
2022-09-16T16:16:14.376Z,6.63
2022-09-16T16:18:45.933Z,6.68
2022-09-16T16:21:16.596Z,6.25
2022-09-16T16:23:45.293Z,10.70
2022-09-16T16:26:13.719Z,5.88
2022-09-16T16:28:42.026Z,8.65
2022-09-16T16:31:15.907Z,7.93
2022-09-16T16:33:47.540Z,9.73
2022-09-16T16:36:17.622Z,8.48
2022-09-16T16:38:46.462Z,6.88
2022-09-16T16:41:15.659Z,8.88
2022-09-16T16:43:44.035Z,5.90
2022-09-16T16:46:12.417Z,8.05
2022-09-16T16:48:41.121Z,7.78
2022-09-16T16:51:13.855Z,8.40
2022-09-16T16:53:42.191Z,8.00
2022-09-16T16:56:15.126Z,11.20
2022-09-16T16:58:44.618Z,7.60
2022-09-16T17:01:14.724Z,10.23
2022-09-16T17:03:44.850Z,9.73
2022-09-16T17:06:14.542Z,6.68
2022-09-16T17:08:42.822Z,7.80
2022-09-16T17:11:14.000Z,8.68
2022-09-16T17:13:43.693Z,7.97
2022-09-16T17:16:13.451Z,6.23
2022-09-16T17:18:42.734Z,9.38
2022-09-16T17:21:13.166Z,11.48
2022-09-16T17:26:11.144Z,6.78
2022-09-16T17:28:40.513Z,6.85
2022-09-16T17:31:11.872Z,7.35
2022-09-16T17:33:40.272Z,9.23
2022-09-16T17:36:09.540Z,8.75
2022-09-16T17:38:37.792Z,8.38
2022-09-16T17:41:09.370Z,9.55
2022-09-16T17:43:38.646Z,8.30
2022-09-16T17:46:09.130Z,7.82
2022-09-16T17:51:06.778Z,7.80
2022-09-16T17:53:35.244Z,7.22
2022-09-16T17:56:05.568Z,6.78
2022-09-16T17:58:36.096Z,7.53
2022-09-16T18:01:06.674Z,8.02
2022-09-16T18:06:08.098Z,8.63
2022-09-16T18:08:36.753Z,6.63
2022-09-16T18:11:05.711Z,6.60
2022-09-16T18:13:35.958Z,7.22
2022-09-16T18:16:05.921Z,6.57
2022-09-16T18:18:36.591Z,6.93
2022-09-16T18:21:06.412Z,6.35
2022-09-16T18:23:35.168Z,6.80
2022-09-16T18:26:07.785Z,6.50
2022-09-16T18:28:58.067Z,7.07
2022-09-16T18:31:26.557Z,9.70
2022-09-16T18:33:55.989Z,8.70
2022-09-16T18:36:25.642Z,7.03
2022-09-16T18:38:54.806Z,8.53
2022-09-16T18:41:24.313Z,6.50
2022-09-16T18:43:56.217Z,8.73
2022-09-16T18:46:26.836Z,7.47
2022-09-16T18:48:55.978Z,9.98
2022-09-16T18:51:26.026Z,8.95
2022-09-16T18:53:55.671Z,7.88
2022-09-16T18:56:26.056Z,10.37
2022-09-16T18:59:20.054Z,10.75
2022-09-16T19:01:48.690Z,9.23
2022-09-16T19:06:46.965Z,8.82
2022-09-16T19:09:16.216Z,8.10
2022-09-16T19:11:44.697Z,10.75
2022-09-16T19:14:15.399Z,8.98
2022-09-16T19:16:45.258Z,7.45
2022-09-16T19:19:15.602Z,11.27
2022-09-16T19:21:44.586Z,8.48
2022-09-16T19:24:14.947Z,8.43
2022-09-16T19:26:44.626Z,10.30
2022-09-16T19:29:15.094Z,10.33
2022-09-16T19:31:44.734Z,9.25
2022-09-16T19:34:13.873Z,19.87
2022-09-16T19:36:42.690Z,10.05
2022-09-16T19:39:12.300Z,9.10
2022-09-16T19:41:41.562Z,10.90
2022-09-16T19:44:12.443Z,9.15
2022-09-16T19:46:43.446Z,11.00
2022-09-16T19:49:15.979Z,11.57
2022-09-16T19:51:44.554Z,8.85
2022-09-16T19:54:13.603Z,8.75
2022-09-16T19:56:44.960Z,10.65
2022-09-16T19:59:16.761Z,9.88
2022-09-16T20:01:46.666Z,11.07
2022-09-16T20:04:15.709Z,9.60
2022-09-16T20:06:44.430Z,9.30
2022-09-16T20:09:14.030Z,8.52
2022-09-16T20:11:44.018Z,8.68
2022-09-16T20:14:14.787Z,10.93
2022-09-16T20:16:44.946Z,8.65
2022-09-16T20:19:18.111Z,7.68
2022-09-16T20:21:48.767Z,9.25
2022-09-16T20:24:19.676Z,9.82
2022-09-16T20:26:48.611Z,8.50
2022-09-16T20:29:18.608Z,8.23
2022-09-16T20:31:47.779Z,10.30
2022-09-16T20:34:18.184Z,8.77
2022-09-16T20:36:47.255Z,9.95
2022-09-16T20:39:17.211Z,9.32
2022-09-16T20:41:49.841Z,8.27
2022-09-16T20:44:18.546Z,9.77
2022-09-16T20:46:48.263Z,10.98
2022-09-16T20:49:19.675Z,8.07
2022-09-16T20:51:47.990Z,9.20
2022-09-16T20:54:17.011Z,10.93
2022-09-16T20:56:46.780Z,8.35
2022-09-16T20:59:16.374Z,10.60
2022-09-16T21:01:45.217Z,8.23
2022-09-16T21:04:15.361Z,9.88
2022-09-16T21:06:45.573Z,10.48
2022-09-16T21:09:16.107Z,7.82
2022-09-16T21:11:46.129Z,8.30
2022-09-16T21:14:16.254Z,10.48
2022-09-16T21:16:45.877Z,7.57
2022-09-16T21:19:14.798Z,8.35
2022-09-16T21:21:46.350Z,7.80
2022-09-16T21:24:14.706Z,7.25
2022-09-16T21:26:43.997Z,6.15
2022-09-16T21:29:13.801Z,5.82
2022-09-16T21:31:43.203Z,5.27
2022-09-16T21:34:13.507Z,6.55
2022-09-16T21:36:41.767Z,6.57
2022-09-16T21:39:12.232Z,5.97
2022-09-16T21:41:40.551Z,8.60
2022-09-16T21:44:08.875Z,7.43
2022-09-16T21:46:41.491Z,5.80
2022-09-16T21:49:19.175Z,5.22
2022-09-16T21:51:47.522Z,5.72
2022-09-16T21:54:20.104Z,5.30
2022-09-16T21:56:49.299Z,5.35
2022-09-16T21:59:19.861Z,5.90
2022-09-16T22:01:49.492Z,6.40
2022-09-16T22:04:19.484Z,3.40
2022-09-16T22:06:49.311Z,5.18
2022-09-16T22:09:19.074Z,3.97
2022-09-16T22:11:47.862Z,5.50
2022-09-16T22:14:17.004Z,3.60
2022-09-16T22:16:45.319Z,3.90
2022-09-16T22:19:16.008Z,4.15
2022-09-16T22:21:45.757Z,3.40
2022-09-16T22:24:16.230Z,4.30
2022-09-16T22:26:45.971Z,4.22
2022-09-16T22:29:14.457Z,4.93
2022-09-16T22:31:43.162Z,5.63
2022-09-16T22:34:11.580Z,5.90
2022-09-16T22:36:40.606Z,4.85
2022-09-16T22:39:13.343Z,6.03
2022-09-16T22:41:41.678Z,6.43
2022-09-16T22:44:11.451Z,8.15
2022-09-16T22:46:42.259Z,7.03
2022-09-16T22:49:11.437Z,6.88
2022-09-16T22:51:40.062Z,10.15
2022-09-16T22:54:08.544Z,9.38
2022-09-16T22:56:37.258Z,9.52
2022-09-16T22:59:07.069Z,9.23
2022-09-16T23:01:39.733Z,9.35
2022-09-16T23:04:09.978Z,9.65
2022-09-16T23:06:39.660Z,9.60
2022-09-16T23:09:09.167Z,9.80
2022-09-16T23:11:37.641Z,9.73
2022-09-16T23:14:06.586Z,10.48
2022-09-16T23:16:38.205Z,12.63
2022-09-16T23:19:07.973Z,14.32
2022-09-16T23:21:36.348Z,16.08
2022-09-16T23:24:05.788Z,10.45
2022-09-16T23:26:35.571Z,10.32
2022-09-16T23:29:06.055Z,8.93
2022-09-16T23:31:40.343Z,8.93
2022-09-16T23:34:09.367Z,9.68
2022-09-16T23:36:38.169Z,8.57
2022-09-16T23:39:07.558Z,9.32
2022-09-16T23:41:36.268Z,11.02
2022-09-16T23:44:04.764Z,7.88
2022-09-16T23:46:34.354Z,9.30
2022-09-16T23:49:04.678Z,9.70
2022-09-16T23:51:33.173Z,8.65
2022-09-16T23:54:01.447Z,11.60
2022-09-16T23:56:29.823Z,9.45
2022-09-16T23:59:01.470Z,11.07
